sensor_id;sensor_type;location;lat;lon;timestamp;P1;durP1;ratioP1;P2;durP2;ratioP2
38117;SDS011;23928;47.562;7.508;2022-09-09T00:01:54;2.23;;;1.00;;
38117;SDS011;23928;47.562;7.508;2022-09-09T00:12:25;2.20;;;1.10;;
38117;SDS011;23928;47.562;7.508;2022-09-09T00:15:00;5.07;;;1.17;;
38117;SDS011;23928;47.562;7.508;2022-09-09T00:17:45;1.40;;;0.87;;
38117;SDS011;23928;47.562;7.508;2022-09-09T00:22:53;1.00;;;0.80;;
38117;SDS011;23928;47.562;7.508;2022-09-09T00:25:37;2.67;;;1.10;;
38117;SDS011;23928;47.562;7.508;2022-09-09T00:28:20;4.73;;;1.10;;
38117;SDS011;23928;47.562;7.508;2022-09-09T00:30:49;1.87;;;1.00;;
38117;SDS011;23928;47.562;7.508;2022-09-09T00:33:16;2.67;;;1.10;;
38117;SDS011;23928;47.562;7.508;2022-09-09T00:35:56;1.50;;;1.20;;
38117;SDS011;23928;47.562;7.508;2022-09-09T00:38:24;3.33;;;1.27;;
38117;SDS011;23928;47.562;7.508;2022-09-09T00:41:05;1.90;;;1.10;;
38117;SDS011;23928;47.562;7.508;2022-09-09T00:43:55;4.13;;;1.40;;
38117;SDS011;23928;47.562;7.508;2022-09-09T00:57:33;3.17;;;1.40;;
38117;SDS011;23928;47.562;7.508;2022-09-09T01:11:26;3.53;;;1.30;;
38117;SDS011;23928;47.562;7.508;2022-09-09T01:14:10;2.90;;;1.50;;
38117;SDS011;23928;47.562;7.508;2022-09-09T01:16:50;1.70;;;1.07;;
38117;SDS011;23928;47.562;7.508;2022-09-09T01:19:28;3.53;;;1.57;;
38117;SDS011;23928;47.562;7.508;2022-09-09T01:22:20;2.83;;;1.03;;
38117;SDS011;23928;47.562;7.508;2022-09-09T01:27:41;3.43;;;1.20;;
38117;SDS011;23928;47.562;7.508;2022-09-09T01:30:13;4.93;;;1.37;;
38117;SDS011;23928;47.562;7.508;2022-09-09T01:32:48;3.40;;;1.43;;
38117;SDS011;23928;47.562;7.508;2022-09-09T01:35:22;2.93;;;1.50;;
38117;SDS011;23928;47.562;7.508;2022-09-09T01:38:25;5.27;;;1.33;;
38117;SDS011;23928;47.562;7.508;2022-09-09T01:40:52;3.43;;;1.23;;
38117;SDS011;23928;47.562;7.508;2022-09-09T01:43:21;5.57;;;1.30;;
38117;SDS011;23928;47.562;7.508;2022-09-09T01:45:49;2.07;;;1.20;;
38117;SDS011;23928;47.562;7.508;2022-09-09T01:48:18;3.97;;;1.23;;
38117;SDS011;23928;47.562;7.508;2022-09-09T01:50:45;2.43;;;1.27;;
38117;SDS011;23928;47.562;7.508;2022-09-09T01:53:10;1.30;;;1.20;;
38117;SDS011;23928;47.562;7.508;2022-09-09T02:07:00;2.93;;;1.40;;
38117;SDS011;23928;47.562;7.508;2022-09-09T02:09:26;1.63;;;1.10;;
38117;SDS011;23928;47.562;7.508;2022-09-09T02:12:00;0.87;;;0.87;;
38117;SDS011;23928;47.562;7.508;2022-09-09T02:14:34;3.03;;;1.00;;
38117;SDS011;23928;47.562;7.508;2022-09-09T02:17:07;4.23;;;1.20;;
38117;SDS011;23928;47.562;7.508;2022-09-09T02:19:37;2.17;;;0.93;;
38117;SDS011;23928;47.562;7.508;2022-09-09T02:22:15;1.43;;;1.07;;
38117;SDS011;23928;47.562;7.508;2022-09-09T02:24:44;4.10;;;1.00;;
38117;SDS011;23928;47.562;7.508;2022-09-09T02:27:12;1.47;;;1.00;;
38117;SDS011;23928;47.562;7.508;2022-09-09T02:29:40;2.23;;;1.13;;
38117;SDS011;23928;47.562;7.508;2022-09-09T02:32:09;3.50;;;0.93;;
38117;SDS011;23928;47.562;7.508;2022-09-09T02:34:40;0.90;;;0.87;;
38117;SDS011;23928;47.562;7.508;2022-09-09T02:37:09;3.00;;;1.10;;
38117;SDS011;23928;47.562;7.508;2022-09-09T02:39:36;3.17;;;1.07;;
38117;SDS011;23928;47.562;7.508;2022-09-09T02:42:02;4.00;;;1.20;;
38117;SDS011;23928;47.562;7.508;2022-09-09T02:44:29;2.63;;;1.20;;
38117;SDS011;23928;47.562;7.508;2022-09-09T02:52:54;2.00;;;1.00;;
38117;SDS011;23928;47.562;7.508;2022-09-09T02:55:04;1.90;;;1.03;;
38117;SDS011;23928;47.562;7.508;2022-09-09T02:57:36;3.17;;;1.10;;
38117;SDS011;23928;47.562;7.508;2022-09-09T03:00:03;2.07;;;0.93;;
38117;SDS011;23928;47.562;7.508;2022-09-09T03:02:30;2.17;;;0.90;;
38117;SDS011;23928;47.562;7.508;2022-09-09T03:04:55;6.07;;;1.40;;
38117;SDS011;23928;47.562;7.508;2022-09-09T03:07:21;4.67;;;1.00;;
38117;SDS011;23928;47.562;7.508;2022-09-09T03:09:47;2.67;;;1.10;;
38117;SDS011;23928;47.562;7.508;2022-09-09T03:12:13;1.60;;;1.10;;
38117;SDS011;23928;47.562;7.508;2022-09-09T03:14:39;2.97;;;1.10;;
38117;SDS011;23928;47.562;7.508;2022-09-09T03:17:05;3.90;;;1.07;;
38117;SDS011;23928;47.562;7.508;2022-09-09T03:19:31;4.53;;;1.33;;
38117;SDS011;23928;47.562;7.508;2022-09-09T03:21:57;1.90;;;1.03;;
38117;SDS011;23928;47.562;7.508;2022-09-09T03:24:23;2.20;;;1.00;;
38117;SDS011;23928;47.562;7.508;2022-09-09T03:26:49;1.63;;;1.20;;
38117;SDS011;23928;47.562;7.508;2022-09-09T03:29:15;3.23;;;1.07;;
38117;SDS011;23928;47.562;7.508;2022-09-09T03:31:42;1.90;;;1.07;;
38117;SDS011;23928;47.562;7.508;2022-09-09T03:34:08;3.17;;;1.20;;
38117;SDS011;23928;47.562;7.508;2022-09-09T03:36:34;1.77;;;1.10;;
38117;SDS011;23928;47.562;7.508;2022-09-09T03:39:00;4.37;;;1.17;;
38117;SDS011;23928;47.562;7.508;2022-09-09T03:41:27;2.00;;;1.00;;
38117;SDS011;23928;47.562;7.508;2022-09-09T03:43:54;1.83;;;0.80;;
38117;SDS011;23928;47.562;7.508;2022-09-09T03:46:20;1.50;;;1.20;;
38117;SDS011;23928;47.562;7.508;2022-09-09T03:48:47;3.17;;;1.33;;
38117;SDS011;23928;47.562;7.508;2022-09-09T03:51:13;2.70;;;1.17;;
38117;SDS011;23928;47.562;7.508;2022-09-09T03:53:40;1.20;;;1.03;;
38117;SDS011;23928;47.562;7.508;2022-09-09T03:56:06;2.37;;;1.20;;
38117;SDS011;23928;47.562;7.508;2022-09-09T03:58:32;1.90;;;1.03;;
38117;SDS011;23928;47.562;7.508;2022-09-09T04:01:00;4.50;;;1.47;;
38117;SDS011;23928;47.562;7.508;2022-09-09T04:03:30;1.30;;;1.10;;
38117;SDS011;23928;47.562;7.508;2022-09-09T04:05:57;3.50;;;1.23;;
38117;SDS011;23928;47.562;7.508;2022-09-09T04:08:24;1.00;;;0.90;;
38117;SDS011;23928;47.562;7.508;2022-09-09T04:10:50;2.53;;;1.00;;
38117;SDS011;23928;47.562;7.508;2022-09-09T04:13:17;1.03;;;0.93;;
38117;SDS011;23928;47.562;7.508;2022-09-09T04:15:48;2.23;;;1.10;;
38117;SDS011;23928;47.562;7.508;2022-09-09T04:18:16;3.87;;;1.20;;
38117;SDS011;23928;47.562;7.508;2022-09-09T04:20:41;1.27;;;0.90;;
38117;SDS011;23928;47.562;7.508;2022-09-09T04:23:08;0.87;;;0.87;;
38117;SDS011;23928;47.562;7.508;2022-09-09T04:25:34;2.80;;;1.10;;
38117;SDS011;23928;47.562;7.508;2022-09-09T04:27:59;1.60;;;0.90;;
38117;SDS011;23928;47.562;7.508;2022-09-09T04:30:25;1.30;;;1.13;;
38117;SDS011;23928;47.562;7.508;2022-09-09T04:32:52;1.93;;;1.30;;
38117;SDS011;23928;47.562;7.508;2022-09-09T04:35:18;3.57;;;1.13;;
38117;SDS011;23928;47.562;7.508;2022-09-09T04:37:45;9.10;;;1.23;;
38117;SDS011;23928;47.562;7.508;2022-09-09T04:40:10;4.43;;;1.10;;
38117;SDS011;23928;47.562;7.508;2022-09-09T04:42:36;1.73;;;0.80;;
38117;SDS011;23928;47.562;7.508;2022-09-09T04:45:04;3.07;;;1.10;;
38117;SDS011;23928;47.562;7.508;2022-09-09T04:47:31;2.90;;;1.07;;
38117;SDS011;23928;47.562;7.508;2022-09-09T04:49:56;4.37;;;1.07;;
38117;SDS011;23928;47.562;7.508;2022-09-09T04:52:22;0.80;;;0.80;;
38117;SDS011;23928;47.562;7.508;2022-09-09T04:54:48;1.27;;;0.80;;
38117;SDS011;23928;47.562;7.508;2022-09-09T04:57:13;2.47;;;1.00;;
38117;SDS011;23928;47.562;7.508;2022-09-09T04:59:39;2.20;;;0.80;;
38117;SDS011;23928;47.562;7.508;2022-09-09T05:02:05;2.63;;;1.10;;
38117;SDS011;23928;47.562;7.508;2022-09-09T05:04:31;1.23;;;1.03;;
38117;SDS011;23928;47.562;7.508;2022-09-09T05:06:58;2.60;;;1.07;;
38117;SDS011;23928;47.562;7.508;2022-09-09T05:09:23;0.60;;;0.60;;
38117;SDS011;23928;47.562;7.508;2022-09-09T05:11:49;1.87;;;1.10;;
38117;SDS011;23928;47.562;7.508;2022-09-09T05:14:16;3.70;;;1.40;;
38117;SDS011;23928;47.562;7.508;2022-09-09T05:16:42;3.70;;;1.47;;
38117;SDS011;23928;47.562;7.508;2022-09-09T05:19:09;3.10;;;1.57;;
38117;SDS011;23928;47.562;7.508;2022-09-09T05:21:35;7.83;;;3.70;;
38117;SDS011;23928;47.562;7.508;2022-09-09T05:24:01;5.50;;;1.87;;
38117;SDS011;23928;47.562;7.508;2022-09-09T05:26:27;1.83;;;1.60;;
38117;SDS011;23928;47.562;7.508;2022-09-09T05:28:54;1.00;;;0.77;;
38117;SDS011;23928;47.562;7.508;2022-09-09T05:31:20;2.03;;;1.00;;
38117;SDS011;23928;47.562;7.508;2022-09-09T05:33:46;0.90;;;0.90;;
38117;SDS011;23928;47.562;7.508;2022-09-09T05:36:15;2.73;;;1.37;;
38117;SDS011;23928;47.562;7.508;2022-09-09T05:38:42;4.50;;;1.10;;
38117;SDS011;23928;47.562;7.508;2022-09-09T05:41:09;3.57;;;1.30;;
38117;SDS011;23928;47.562;7.508;2022-09-09T05:43:40;2.50;;;1.10;;
38117;SDS011;23928;47.562;7.508;2022-09-09T05:46:11;1.67;;;1.10;;
38117;SDS011;23928;47.562;7.508;2022-09-09T05:48:42;2.27;;;1.30;;
38117;SDS011;23928;47.562;7.508;2022-09-09T05:51:13;3.20;;;1.20;;
38117;SDS011;23928;47.562;7.508;2022-09-09T05:53:41;3.67;;;1.30;;
38117;SDS011;23928;47.562;7.508;2022-09-09T05:56:09;5.47;;;1.53;;
38117;SDS011;23928;47.562;7.508;2022-09-09T05:58:36;2.50;;;0.93;;
38117;SDS011;23928;47.562;7.508;2022-09-09T06:01:03;7.17;;;1.53;;
38117;SDS011;23928;47.562;7.508;2022-09-09T06:03:35;5.40;;;1.40;;
38117;SDS011;23928;47.562;7.508;2022-09-09T06:06:02;3.17;;;1.13;;
38117;SDS011;23928;47.562;7.508;2022-09-09T06:08:36;4.87;;;1.30;;
38117;SDS011;23928;47.562;7.508;2022-09-09T06:11:07;3.43;;;1.50;;
38117;SDS011;23928;47.562;7.508;2022-09-09T06:13:40;4.07;;;1.13;;
38117;SDS011;23928;47.562;7.508;2022-09-09T06:16:16;2.60;;;1.33;;
38117;SDS011;23928;47.562;7.508;2022-09-09T06:18:43;3.17;;;1.50;;
38117;SDS011;23928;47.562;7.508;2022-09-09T06:21:11;5.20;;;1.50;;
38117;SDS011;23928;47.562;7.508;2022-09-09T06:23:41;2.20;;;1.10;;
38117;SDS011;23928;47.562;7.508;2022-09-09T06:26:09;4.63;;;1.20;;
38117;SDS011;23928;47.562;7.508;2022-09-09T06:28:37;1.83;;;1.17;;
38117;SDS011;23928;47.562;7.508;2022-09-09T06:31:04;2.17;;;0.93;;
38117;SDS011;23928;47.562;7.508;2022-09-09T06:33:35;3.50;;;1.20;;
38117;SDS011;23928;47.562;7.508;2022-09-09T06:36:06;2.83;;;1.10;;
38117;SDS011;23928;47.562;7.508;2022-09-09T06:38:36;3.40;;;1.20;;
38117;SDS011;23928;47.562;7.508;2022-09-09T06:41:02;4.23;;;1.40;;
38117;SDS011;23928;47.562;7.508;2022-09-09T06:43:27;4.67;;;1.60;;
38117;SDS011;23928;47.562;7.508;2022-09-09T06:45:57;0.93;;;0.93;;
38117;SDS011;23928;47.562;7.508;2022-09-09T06:48:25;3.50;;;1.10;;
38117;SDS011;23928;47.562;7.508;2022-09-09T06:51:09;2.53;;;1.30;;
38117;SDS011;23928;47.562;7.508;2022-09-09T06:53:37;6.37;;;1.57;;
38117;SDS011;23928;47.562;7.508;2022-09-09T06:58:41;6.90;;;1.17;;
38117;SDS011;23928;47.562;7.508;2022-09-09T07:01:09;3.57;;;1.20;;
38117;SDS011;23928;47.562;7.508;2022-09-09T07:03:37;2.97;;;1.07;;
38117;SDS011;23928;47.562;7.508;2022-09-09T07:06:04;3.00;;;0.90;;
38117;SDS011;23928;47.562;7.508;2022-09-09T07:08:30;4.97;;;1.57;;
38117;SDS011;23928;47.562;7.508;2022-09-09T07:11:03;5.83;;;1.50;;
38117;SDS011;23928;47.562;7.508;2022-09-09T07:13:30;2.67;;;1.20;;
38117;SDS011;23928;47.562;7.508;2022-09-09T07:16:02;2.37;;;1.20;;
38117;SDS011;23928;47.562;7.508;2022-09-09T07:18:32;1.87;;;1.00;;
38117;SDS011;23928;47.562;7.508;2022-09-09T07:20:58;2.53;;;1.33;;
38117;SDS011;23928;47.562;7.508;2022-09-09T07:23:24;3.77;;;1.20;;
38117;SDS011;23928;47.562;7.508;2022-09-09T07:25:51;4.87;;;1.30;;
38117;SDS011;23928;47.562;7.508;2022-09-09T07:28:17;3.50;;;1.23;;
38117;SDS011;23928;47.562;7.508;2022-09-09T07:30:45;5.83;;;1.53;;
38117;SDS011;23928;47.562;7.508;2022-09-09T07:33:18;4.67;;;1.00;;
38117;SDS011;23928;47.562;7.508;2022-09-09T07:35:45;2.50;;;1.37;;
38117;SDS011;23928;47.562;7.508;2022-09-09T07:38:10;5.47;;;1.40;;
38117;SDS011;23928;47.562;7.508;2022-09-09T07:40:36;3.80;;;1.10;;
38117;SDS011;23928;47.562;7.508;2022-09-09T07:43:02;4.57;;;1.50;;
38117;SDS011;23928;47.562;7.508;2022-09-09T07:45:28;4.03;;;1.50;;
38117;SDS011;23928;47.562;7.508;2022-09-09T07:47:54;4.93;;;1.67;;
38117;SDS011;23928;47.562;7.508;2022-09-09T07:50:21;3.67;;;0.97;;
38117;SDS011;23928;47.562;7.508;2022-09-09T07:52:48;3.37;;;1.30;;
38117;SDS011;23928;47.562;7.508;2022-09-09T07:55:14;6.67;;;1.60;;
38117;SDS011;23928;47.562;7.508;2022-09-09T07:57:40;1.03;;;0.80;;
38117;SDS011;23928;47.562;7.508;2022-09-09T08:00:06;4.80;;;0.97;;
38117;SDS011;23928;47.562;7.508;2022-09-09T08:02:32;12.30;;;1.53;;
38117;SDS011;23928;47.562;7.508;2022-09-09T08:04:57;1.97;;;1.10;;
38117;SDS011;23928;47.562;7.508;2022-09-09T08:07:23;3.80;;;1.20;;
38117;SDS011;23928;47.562;7.508;2022-09-09T08:09:49;2.13;;;1.57;;
38117;SDS011;23928;47.562;7.508;2022-09-09T08:12:15;3.60;;;1.10;;
38117;SDS011;23928;47.562;7.508;2022-09-09T08:14:41;3.10;;;1.00;;
38117;SDS011;23928;47.562;7.508;2022-09-09T08:17:07;2.83;;;1.13;;
38117;SDS011;23928;47.562;7.508;2022-09-09T08:19:33;4.23;;;1.40;;
38117;SDS011;23928;47.562;7.508;2022-09-09T08:22:02;2.30;;;0.87;;
38117;SDS011;23928;47.562;7.508;2022-09-09T08:24:28;1.90;;;1.13;;
38117;SDS011;23928;47.562;7.508;2022-09-09T08:26:54;2.00;;;0.90;;
38117;SDS011;23928;47.562;7.508;2022-09-09T08:29:21;3.40;;;1.00;;
38117;SDS011;23928;47.562;7.508;2022-09-09T08:31:47;3.00;;;1.00;;
38117;SDS011;23928;47.562;7.508;2022-09-09T08:34:15;2.67;;;1.10;;
38117;SDS011;23928;47.562;7.508;2022-09-09T08:36:41;3.07;;;1.07;;
38117;SDS011;23928;47.562;7.508;2022-09-09T08:39:10;3.20;;;1.70;;
38117;SDS011;23928;47.562;7.508;2022-09-09T08:47:02;2.03;;;0.87;;
38117;SDS011;23928;47.562;7.508;2022-09-09T08:52:16;2.77;;;0.80;;
38117;SDS011;23928;47.562;7.508;2022-09-09T08:55:03;3.23;;;1.23;;
38117;SDS011;23928;47.562;7.508;2022-09-09T08:57:44;6.17;;;1.20;;
38117;SDS011;23928;47.562;7.508;2022-09-09T09:00:11;4.20;;;1.23;;
38117;SDS011;23928;47.562;7.508;2022-09-09T09:08:08;3.97;;;1.00;;
38117;SDS011;23928;47.562;7.508;2022-09-09T09:10:50;2.70;;;0.90;;
38117;SDS011;23928;47.562;7.508;2022-09-09T09:16:13;4.13;;;0.93;;
38117;SDS011;23928;47.562;7.508;2022-09-09T09:18:57;3.47;;;0.80;;
38117;SDS011;23928;47.562;7.508;2022-09-09T09:24:01;4.87;;;0.67;;
38117;SDS011;23928;47.562;7.508;2022-09-09T09:26:30;2.87;;;1.03;;
38117;SDS011;23928;47.562;7.508;2022-09-09T09:28:58;3.50;;;1.00;;
38117;SDS011;23928;47.562;7.508;2022-09-09T09:31:26;4.13;;;1.07;;
38117;SDS011;23928;47.562;7.508;2022-09-09T09:33:55;5.10;;;1.17;;
38117;SDS011;23928;47.562;7.508;2022-09-09T09:39:25;1.80;;;0.97;;
38117;SDS011;23928;47.562;7.508;2022-09-09T09:41:55;2.63;;;1.20;;
38117;SDS011;23928;47.562;7.508;2022-09-09T09:46:53;2.57;;;0.60;;
38117;SDS011;23928;47.562;7.508;2022-09-09T09:49:31;3.30;;;1.10;;
38117;SDS011;23928;47.562;7.508;2022-09-09T09:52:01;3.27;;;1.00;;
38117;SDS011;23928;47.562;7.508;2022-09-09T09:54:28;4.30;;;1.10;;
38117;SDS011;23928;47.562;7.508;2022-09-09T09:57:12;2.90;;;1.00;;
38117;SDS011;23928;47.562;7.508;2022-09-09T09:59:40;5.10;;;1.00;;
38117;SDS011;23928;47.562;7.508;2022-09-09T10:02:16;1.83;;;0.83;;
38117;SDS011;23928;47.562;7.508;2022-09-09T10:04:59;2.80;;;0.97;;
38117;SDS011;23928;47.562;7.508;2022-09-09T10:07:29;2.73;;;0.73;;
38117;SDS011;23928;47.562;7.508;2022-09-09T10:09:56;2.20;;;1.00;;
38117;SDS011;23928;47.562;7.508;2022-09-09T10:21:01;1.87;;;1.00;;
38117;SDS011;23928;47.562;7.508;2022-09-09T10:29:16;3.50;;;1.00;;
38117;SDS011;23928;47.562;7.508;2022-09-09T10:43:01;2.73;;;0.80;;
38117;SDS011;23928;47.562;7.508;2022-09-09T10:56:22;2.87;;;0.67;;
38117;SDS011;23928;47.562;7.508;2022-09-09T11:01:22;2.77;;;0.87;;
38117;SDS011;23928;47.562;7.508;2022-09-09T11:03:56;3.67;;;0.90;;
38117;SDS011;23928;47.562;7.508;2022-09-09T11:06:32;2.73;;;0.70;;
38117;SDS011;23928;47.562;7.508;2022-09-09T11:09:03;3.13;;;1.03;;
38117;SDS011;23928;47.562;7.508;2022-09-09T11:14:15;5.27;;;1.30;;
38117;SDS011;23928;47.562;7.508;2022-09-09T11:17:08;3.57;;;0.87;;
38117;SDS011;23928;47.562;7.508;2022-09-09T11:19:42;3.17;;;0.73;;
38117;SDS011;23928;47.562;7.508;2022-09-09T11:25:00;3.73;;;1.07;;
38117;SDS011;23928;47.562;7.508;2022-09-09T11:27:31;2.40;;;0.90;;
38117;SDS011;23928;47.562;7.508;2022-09-09T11:38:27;4.40;;;1.00;;
38117;SDS011;23928;47.562;7.508;2022-09-09T11:40:58;4.93;;;1.20;;
38117;SDS011;23928;47.562;7.508;2022-09-09T11:43:47;2.23;;;1.10;;
38117;SDS011;23928;47.562;7.508;2022-09-09T11:46:15;5.13;;;1.30;;
38117;SDS011;23928;47.562;7.508;2022-09-09T11:48:45;1.33;;;0.80;;
38117;SDS011;23928;47.562;7.508;2022-09-09T11:59:00;2.90;;;0.60;;
38117;SDS011;23928;47.562;7.508;2022-09-09T12:01:34;0.73;;;0.40;;
38117;SDS011;23928;47.562;7.508;2022-09-09T12:06:57;3.13;;;0.90;;
38117;SDS011;23928;47.562;7.508;2022-09-09T12:14:56;2.77;;;1.13;;
38117;SDS011;23928;47.562;7.508;2022-09-09T12:20:18;3.03;;;0.93;;
38117;SDS011;23928;47.562;7.508;2022-09-09T12:25:58;3.50;;;0.63;;
38117;SDS011;23928;47.562;7.508;2022-09-09T12:28:49;1.90;;;0.87;;
38117;SDS011;23928;47.562;7.508;2022-09-09T12:31:31;1.47;;;0.70;;
38117;SDS011;23928;47.562;7.508;2022-09-09T12:34:33;2.27;;;0.70;;
38117;SDS011;23928;47.562;7.508;2022-09-09T12:39:57;3.70;;;0.77;;
38117;SDS011;23928;47.562;7.508;2022-09-09T12:42:24;1.20;;;0.20;;
38117;SDS011;23928;47.562;7.508;2022-09-09T12:44:51;1.37;;;0.60;;
38117;SDS011;23928;47.562;7.508;2022-09-09T12:47:17;3.03;;;0.50;;
38117;SDS011;23928;47.562;7.508;2022-09-09T12:49:45;2.00;;;0.60;;
38117;SDS011;23928;47.562;7.508;2022-09-09T12:54:46;4.63;;;0.90;;
38117;SDS011;23928;47.562;7.508;2022-09-09T12:57:12;2.67;;;0.73;;
38117;SDS011;23928;47.562;7.508;2022-09-09T12:59:41;1.67;;;0.57;;
38117;SDS011;23928;47.562;7.508;2022-09-09T13:02:20;2.93;;;0.57;;
38117;SDS011;23928;47.562;7.508;2022-09-09T13:04:47;2.80;;;0.70;;
38117;SDS011;23928;47.562;7.508;2022-09-09T13:07:15;6.17;;;0.80;;
38117;SDS011;23928;47.562;7.508;2022-09-09T13:09:43;2.30;;;0.47;;
38117;SDS011;23928;47.562;7.508;2022-09-09T13:12:17;1.13;;;0.60;;
38117;SDS011;23928;47.562;7.508;2022-09-09T13:14:50;1.00;;;0.60;;
38117;SDS011;23928;47.562;7.508;2022-09-09T13:17:22;2.67;;;0.60;;
38117;SDS011;23928;47.562;7.508;2022-09-09T13:19:50;2.33;;;0.50;;
38117;SDS011;23928;47.562;7.508;2022-09-09T13:22:22;2.43;;;0.87;;
38117;SDS011;23928;47.562;7.508;2022-09-09T13:27:35;3.07;;;0.67;;
38117;SDS011;23928;47.562;7.508;2022-09-09T13:33:01;4.03;;;0.97;;
38117;SDS011;23928;47.562;7.508;2022-09-09T13:35:51;1.90;;;0.60;;
38117;SDS011;23928;47.562;7.508;2022-09-09T13:38:18;2.03;;;0.70;;
38117;SDS011;23928;47.562;7.508;2022-09-09T13:40:57;1.10;;;0.50;;
38117;SDS011;23928;47.562;7.508;2022-09-09T13:43:27;2.27;;;0.70;;
38117;SDS011;23928;47.562;7.508;2022-09-09T13:45:55;1.67;;;0.50;;
38117;SDS011;23928;47.562;7.508;2022-09-09T13:48:23;2.07;;;0.63;;
38117;SDS011;23928;47.562;7.508;2022-09-09T13:53:53;1.20;;;0.57;;
38117;SDS011;23928;47.562;7.508;2022-09-09T13:56:19;2.90;;;0.90;;
38117;SDS011;23928;47.562;7.508;2022-09-09T13:58:45;3.70;;;0.70;;
38117;SDS011;23928;47.562;7.508;2022-09-09T14:01:10;1.67;;;0.70;;
38117;SDS011;23928;47.562;7.508;2022-09-09T14:03:36;2.67;;;0.70;;
38117;SDS011;23928;47.562;7.508;2022-09-09T14:06:02;1.07;;;0.57;;
38117;SDS011;23928;47.562;7.508;2022-09-09T14:08:28;1.60;;;0.73;;
38117;SDS011;23928;47.562;7.508;2022-09-09T14:11:01;2.13;;;0.47;;
38117;SDS011;23928;47.562;7.508;2022-09-09T14:13:28;1.47;;;0.60;;
38117;SDS011;23928;47.562;7.508;2022-09-09T14:15:53;2.67;;;0.60;;
38117;SDS011;23928;47.562;7.508;2022-09-09T14:18:19;1.60;;;0.40;;
38117;SDS011;23928;47.562;7.508;2022-09-09T14:20:47;3.20;;;0.53;;
38117;SDS011;23928;47.562;7.508;2022-09-09T14:23:13;2.43;;;0.53;;
38117;SDS011;23928;47.562;7.508;2022-09-09T14:25:41;2.10;;;1.00;;
38117;SDS011;23928;47.562;7.508;2022-09-09T14:28:08;1.80;;;0.50;;
38117;SDS011;23928;47.562;7.508;2022-09-09T14:30:36;2.50;;;0.57;;
38117;SDS011;23928;47.562;7.508;2022-09-09T14:33:03;0.87;;;0.40;;
38117;SDS011;23928;47.562;7.508;2022-09-09T14:35:29;2.30;;;0.70;;
38117;SDS011;23928;47.562;7.508;2022-09-09T14:37:54;0.83;;;0.50;;
38117;SDS011;23928;47.562;7.508;2022-09-09T14:40:21;4.23;;;0.73;;
38117;SDS011;23928;47.562;7.508;2022-09-09T14:42:47;3.13;;;0.50;;
38117;SDS011;23928;47.562;7.508;2022-09-09T14:45:12;0.53;;;0.40;;
38117;SDS011;23928;47.562;7.508;2022-09-09T14:47:38;1.03;;;0.30;;
38117;SDS011;23928;47.562;7.508;2022-09-09T14:50:04;2.23;;;0.60;;
38117;SDS011;23928;47.562;7.508;2022-09-09T14:52:31;2.40;;;0.67;;
38117;SDS011;23928;47.562;7.508;2022-09-09T14:54:56;1.53;;;0.67;;
38117;SDS011;23928;47.562;7.508;2022-09-09T14:57:22;1.03;;;0.40;;
38117;SDS011;23928;47.562;7.508;2022-09-09T14:59:47;3.53;;;0.57;;
38117;SDS011;23928;47.562;7.508;2022-09-09T15:02:15;2.90;;;0.70;;
38117;SDS011;23928;47.562;7.508;2022-09-09T15:04:41;0.73;;;0.40;;
38117;SDS011;23928;47.562;7.508;2022-09-09T15:07:07;1.63;;;0.50;;
38117;SDS011;23928;47.562;7.508;2022-09-09T15:09:32;3.43;;;0.70;;
38117;SDS011;23928;47.562;7.508;2022-09-09T15:11:58;1.00;;;0.43;;
38117;SDS011;23928;47.562;7.508;2022-09-09T15:14:24;3.60;;;0.80;;
38117;SDS011;23928;47.562;7.508;2022-09-09T15:16:51;1.93;;;0.73;;
38117;SDS011;23928;47.562;7.508;2022-09-09T15:19:17;0.87;;;0.53;;
38117;SDS011;23928;47.562;7.508;2022-09-09T15:21:42;1.50;;;0.50;;
38117;SDS011;23928;47.562;7.508;2022-09-09T15:24:08;1.27;;;0.50;;
38117;SDS011;23928;47.562;7.508;2022-09-09T15:26:33;1.93;;;0.70;;
38117;SDS011;23928;47.562;7.508;2022-09-09T15:29:03;1.17;;;0.63;;
38117;SDS011;23928;47.562;7.508;2022-09-09T15:31:30;1.77;;;0.80;;
38117;SDS011;23928;47.562;7.508;2022-09-09T15:34:06;1.13;;;0.57;;
38117;SDS011;23928;47.562;7.508;2022-09-09T15:36:35;1.03;;;0.70;;
38117;SDS011;23928;47.562;7.508;2022-09-09T15:39:07;1.00;;;0.60;;
38117;SDS011;23928;47.562;7.508;2022-09-09T15:41:37;1.93;;;0.70;;
38117;SDS011;23928;47.562;7.508;2022-09-09T15:44:04;2.50;;;0.80;;
38117;SDS011;23928;47.562;7.508;2022-09-09T15:46:34;2.63;;;0.70;;
38117;SDS011;23928;47.562;7.508;2022-09-09T15:49:09;0.70;;;0.67;;
38117;SDS011;23928;47.562;7.508;2022-09-09T15:51:44;2.30;;;0.73;;
38117;SDS011;23928;47.562;7.508;2022-09-09T15:54:12;1.40;;;0.43;;
38117;SDS011;23928;47.562;7.508;2022-09-09T15:56:43;1.10;;;0.57;;
38117;SDS011;23928;47.562;7.508;2022-09-09T15:59:10;2.83;;;0.60;;
38117;SDS011;23928;47.562;7.508;2022-09-09T16:01:36;1.27;;;0.60;;
38117;SDS011;23928;47.562;7.508;2022-09-09T16:04:03;3.10;;;1.00;;
38117;SDS011;23928;47.562;7.508;2022-09-09T16:06:29;2.40;;;0.70;;
38117;SDS011;23928;47.562;7.508;2022-09-09T16:08:56;1.23;;;0.50;;
38117;SDS011;23928;47.562;7.508;2022-09-09T16:11:24;0.40;;;0.30;;
38117;SDS011;23928;47.562;7.508;2022-09-09T16:13:52;3.13;;;0.50;;
38117;SDS011;23928;47.562;7.508;2022-09-09T16:16:19;1.53;;;0.53;;
38117;SDS011;23928;47.562;7.508;2022-09-09T16:18:47;2.13;;;0.50;;
38117;SDS011;23928;47.562;7.508;2022-09-09T16:21:15;1.30;;;0.37;;
38117;SDS011;23928;47.562;7.508;2022-09-09T16:23:51;1.47;;;0.40;;
38117;SDS011;23928;47.562;7.508;2022-09-09T16:26:20;2.07;;;0.70;;
38117;SDS011;23928;47.562;7.508;2022-09-09T16:28:47;0.93;;;0.43;;
38117;SDS011;23928;47.562;7.508;2022-09-09T16:31:14;1.20;;;0.30;;
38117;SDS011;23928;47.562;7.508;2022-09-09T16:33:42;1.23;;;0.30;;
38117;SDS011;23928;47.562;7.508;2022-09-09T16:36:09;3.10;;;0.50;;
38117;SDS011;23928;47.562;7.508;2022-09-09T16:38:37;1.70;;;0.30;;
38117;SDS011;23928;47.562;7.508;2022-09-09T16:41:04;0.70;;;0.37;;
38117;SDS011;23928;47.562;7.508;2022-09-09T16:43:31;1.13;;;0.43;;
38117;SDS011;23928;47.562;7.508;2022-09-09T16:45:57;1.07;;;0.57;;
38117;SDS011;23928;47.562;7.508;2022-09-09T16:48:25;0.40;;;0.20;;
38117;SDS011;23928;47.562;7.508;2022-09-09T16:50:52;0.73;;;0.40;;
38117;SDS011;23928;47.562;7.508;2022-09-09T16:53:18;0.23;;;0.23;;
38117;SDS011;23928;47.562;7.508;2022-09-09T16:55:43;0.70;;;0.30;;
38117;SDS011;23928;47.562;7.508;2022-09-09T16:58:12;1.23;;;0.50;;
38117;SDS011;23928;47.562;7.508;2022-09-09T17:00:37;0.37;;;0.27;;
38117;SDS011;23928;47.562;7.508;2022-09-09T17:03:03;2.37;;;0.60;;
38117;SDS011;23928;47.562;7.508;2022-09-09T17:05:29;0.60;;;0.30;;
38117;SDS011;23928;47.562;7.508;2022-09-09T17:07:55;0.30;;;0.20;;
38117;SDS011;23928;47.562;7.508;2022-09-09T17:10:22;2.07;;;0.50;;
38117;SDS011;23928;47.562;7.508;2022-09-09T17:12:50;1.03;;;0.50;;
38117;SDS011;23928;47.562;7.508;2022-09-09T17:15:15;2.23;;;0.43;;
38117;SDS011;23928;47.562;7.508;2022-09-09T17:17:42;1.23;;;0.40;;
38117;SDS011;23928;47.562;7.508;2022-09-09T17:20:10;1.07;;;0.67;;
38117;SDS011;23928;47.562;7.508;2022-09-09T17:22:35;1.33;;;0.40;;
38117;SDS011;23928;47.562;7.508;2022-09-09T17:25:01;0.40;;;0.30;;
38117;SDS011;23928;47.562;7.508;2022-09-09T17:27:28;2.60;;;0.50;;
38117;SDS011;23928;47.562;7.508;2022-09-09T17:29:56;2.20;;;0.47;;
38117;SDS011;23928;47.562;7.508;2022-09-09T17:32:22;3.13;;;0.60;;
38117;SDS011;23928;47.562;7.508;2022-09-09T17:34:48;0.57;;;0.23;;
38117;SDS011;23928;47.562;7.508;2022-09-09T17:37:13;1.30;;;0.40;;
38117;SDS011;23928;47.562;7.508;2022-09-09T17:39:39;1.27;;;0.30;;
38117;SDS011;23928;47.562;7.508;2022-09-09T17:42:04;2.33;;;0.67;;
38117;SDS011;23928;47.562;7.508;2022-09-09T17:44:32;0.93;;;0.30;;
38117;SDS011;23928;47.562;7.508;2022-09-09T17:46:58;1.33;;;0.80;;
38117;SDS011;23928;47.562;7.508;2022-09-09T17:49:24;2.63;;;0.40;;